sensor_id;sensor_type;location;lat;lon;timestamp;P1;durP1;ratioP1;P2;durP2;ratioP2
8538;SDS011;4307;53.868;11.680;2023-11-18T00:00:29;3.27;;;3.00;;
8538;SDS011;4307;53.868;11.680;2023-11-18T00:02:55;3.83;;;3.20;;
8538;SDS011;4307;53.868;11.680;2023-11-18T00:05:22;3.97;;;3.10;;
8538;SDS011;4307;53.868;11.680;2023-11-18T00:07:50;5.83;;;3.70;;
8538;SDS011;4307;53.868;11.680;2023-11-18T00:10:16;6.80;;;3.20;;
8538;SDS011;4307;53.868;11.680;2023-11-18T00:12:43;5.27;;;2.40;;
8538;SDS011;4307;53.868;11.680;2023-11-18T00:15:11;3.83;;;2.03;;
8538;SDS011;4307;53.868;11.680;2023-11-18T00:17:38;2.63;;;1.87;;
8538;SDS011;4307;53.868;11.680;2023-11-18T00:20:05;1.87;;;1.63;;
8538;SDS011;4307;53.868;11.680;2023-11-18T00:22:34;3.27;;;2.50;;
8538;SDS011;4307;53.868;11.680;2023-11-18T00:25:02;2.23;;;2.10;;
8538;SDS011;4307;53.868;11.680;2023-11-18T00:27:32;3.10;;;2.30;;
8538;SDS011;4307;53.868;11.680;2023-11-18T00:30:01;5.03;;;2.40;;
8538;SDS011;4307;53.868;11.680;2023-11-18T00:32:30;2.20;;;2.00;;
8538;SDS011;4307;53.868;11.680;2023-11-18T00:34:57;3.93;;;2.60;;
8538;SDS011;4307;53.868;11.680;2023-11-18T00:37:24;2.87;;;2.40;;
8538;SDS011;4307;53.868;11.680;2023-11-18T00:39:51;3.00;;;2.70;;
8538;SDS011;4307;53.868;11.680;2023-11-18T00:42:19;4.27;;;2.93;;
8538;SDS011;4307;53.868;11.680;2023-11-18T00:44:46;3.10;;;2.80;;
8538;SDS011;4307;53.868;11.680;2023-11-18T00:47:12;5.37;;;2.53;;
8538;SDS011;4307;53.868;11.680;2023-11-18T00:49:39;2.43;;;2.07;;
8538;SDS011;4307;53.868;11.680;2023-11-18T00:52:06;2.77;;;2.53;;
8538;SDS011;4307;53.868;11.680;2023-11-18T00:54:34;2.60;;;2.40;;
8538;SDS011;4307;53.868;11.680;2023-11-18T00:57:01;2.80;;;2.60;;
8538;SDS011;4307;53.868;11.680;2023-11-18T00:59:29;2.90;;;2.37;;
8538;SDS011;4307;53.868;11.680;2023-11-18T01:01:55;3.00;;;2.50;;
8538;SDS011;4307;53.868;11.680;2023-11-18T01:04:22;3.40;;;2.60;;
8538;SDS011;4307;53.868;11.680;2023-11-18T01:06:50;4.90;;;2.63;;
8538;SDS011;4307;53.868;11.680;2023-11-18T01:09:17;4.07;;;2.77;;
8538;SDS011;4307;53.868;11.680;2023-11-18T01:11:44;5.40;;;2.07;;
8538;SDS011;4307;53.868;11.680;2023-11-18T01:14:11;7.70;;;3.30;;
8538;SDS011;4307;53.868;11.680;2023-11-18T01:16:39;6.17;;;3.33;;
8538;SDS011;4307;53.868;11.680;2023-11-18T01:19:05;6.57;;;3.27;;
8538;SDS011;4307;53.868;11.680;2023-11-18T01:21:34;5.87;;;3.60;;
8538;SDS011;4307;53.868;11.680;2023-11-18T01:24:01;4.00;;;3.43;;
8538;SDS011;4307;53.868;11.680;2023-11-18T01:26:28;6.77;;;3.90;;
8538;SDS011;4307;53.868;11.680;2023-11-18T01:28:55;7.20;;;4.70;;
8538;SDS011;4307;53.868;11.680;2023-11-18T01:31:21;7.37;;;4.83;;
8538;SDS011;4307;53.868;11.680;2023-11-18T01:33:49;6.73;;;4.97;;
8538;SDS011;4307;53.868;11.680;2023-11-18T01:36:16;8.73;;;5.27;;
8538;SDS011;4307;53.868;11.680;2023-11-18T01:38:43;8.63;;;5.20;;
8538;SDS011;4307;53.868;11.680;2023-11-18T01:41:11;8.63;;;5.73;;
8538;SDS011;4307;53.868;11.680;2023-11-18T01:43:38;10.17;;;5.50;;
8538;SDS011;4307;53.868;11.680;2023-11-18T01:46:05;9.57;;;6.03;;
8538;SDS011;4307;53.868;11.680;2023-11-18T01:48:38;10.47;;;5.80;;
8538;SDS011;4307;53.868;11.680;2023-11-18T01:51:08;9.77;;;5.90;;
8538;SDS011;4307;53.868;11.680;2023-11-18T01:53:37;13.07;;;6.87;;
8538;SDS011;4307;53.868;11.680;2023-11-18T01:56:05;9.57;;;6.30;;
8538;SDS011;4307;53.868;11.680;2023-11-18T01:58:33;9.77;;;6.10;;
8538;SDS011;4307;53.868;11.680;2023-11-18T02:01:01;10.93;;;6.87;;
8538;SDS011;4307;53.868;11.680;2023-11-18T02:03:28;13.30;;;7.67;;
8538;SDS011;4307;53.868;11.680;2023-11-18T02:05:55;14.57;;;6.87;;
8538;SDS011;4307;53.868;11.680;2023-11-18T02:08:23;11.63;;;7.33;;
8538;SDS011;4307;53.868;11.680;2023-11-18T02:10:53;12.60;;;7.47;;
8538;SDS011;4307;53.868;11.680;2023-11-18T02:13:26;14.03;;;6.80;;
8538;SDS011;4307;53.868;11.680;2023-11-18T02:15:56;15.03;;;7.00;;
8538;SDS011;4307;53.868;11.680;2023-11-18T02:18:24;11.93;;;7.50;;
8538;SDS011;4307;53.868;11.680;2023-11-18T02:20:52;11.20;;;7.27;;
8538;SDS011;4307;53.868;11.680;2023-11-18T02:23:20;11.37;;;7.53;;
8538;SDS011;4307;53.868;11.680;2023-11-18T02:25:50;13.53;;;7.37;;
8538;SDS011;4307;53.868;11.680;2023-11-18T02:28:16;11.70;;;7.20;;
8538;SDS011;4307;53.868;11.680;2023-11-18T02:30:44;10.47;;;7.03;;
8538;SDS011;4307;53.868;11.680;2023-11-18T02:33:14;13.40;;;8.00;;
8538;SDS011;4307;53.868;11.680;2023-11-18T02:35:45;13.40;;;7.33;;
8538;SDS011;4307;53.868;11.680;2023-11-18T02:38:18;15.83;;;7.40;;
8538;SDS011;4307;53.868;11.680;2023-11-18T02:40:51;9.10;;;6.87;;
8538;SDS011;4307;53.868;11.680;2023-11-18T02:43:21;9.60;;;6.27;;
8538;SDS011;4307;53.868;11.680;2023-11-18T02:45:50;11.70;;;6.50;;
8538;SDS011;4307;53.868;11.680;2023-11-18T02:48:19;9.17;;;6.70;;
8538;SDS011;4307;53.868;11.680;2023-11-18T02:50:46;10.37;;;6.20;;
8538;SDS011;4307;53.868;11.680;2023-11-18T02:53:13;11.00;;;6.93;;
8538;SDS011;4307;53.868;11.680;2023-11-18T02:55:39;13.17;;;7.00;;
8538;SDS011;4307;53.868;11.680;2023-11-18T02:58:08;10.00;;;6.67;;
8538;SDS011;4307;53.868;11.680;2023-11-18T03:00:34;10.30;;;6.80;;
8538;SDS011;4307;53.868;11.680;2023-11-18T03:03:03;13.87;;;6.63;;
8538;SDS011;4307;53.868;11.680;2023-11-18T03:05:30;11.40;;;6.63;;
8538;SDS011;4307;53.868;11.680;2023-11-18T03:07:57;9.57;;;6.53;;
8538;SDS011;4307;53.868;11.680;2023-11-18T03:10:24;9.70;;;6.23;;
8538;SDS011;4307;53.868;11.680;2023-11-18T03:12:51;12.43;;;7.77;;
8538;SDS011;4307;53.868;11.680;2023-11-18T03:15:20;12.27;;;6.70;;
8538;SDS011;4307;53.868;11.680;2023-11-18T03:17:48;12.47;;;6.73;;
8538;SDS011;4307;53.868;11.680;2023-11-18T03:20:15;8.77;;;5.90;;
8538;SDS011;4307;53.868;11.680;2023-11-18T03:22:42;10.23;;;5.73;;
8538;SDS011;4307;53.868;11.680;2023-11-18T03:25:10;8.97;;;6.43;;
8538;SDS011;4307;53.868;11.680;2023-11-18T03:27:37;9.73;;;6.33;;
8538;SDS011;4307;53.868;11.680;2023-11-18T03:30:04;10.60;;;6.67;;
8538;SDS011;4307;53.868;11.680;2023-11-18T03:32:34;11.80;;;7.03;;
8538;SDS011;4307;53.868;11.680;2023-11-18T03:35:01;10.77;;;6.70;;
8538;SDS011;4307;53.868;11.680;2023-11-18T03:37:29;12.27;;;6.60;;
8538;SDS011;4307;53.868;11.680;2023-11-18T03:39:56;10.27;;;6.60;;
8538;SDS011;4307;53.868;11.680;2023-11-18T03:42:22;9.13;;;6.23;;
8538;SDS011;4307;53.868;11.680;2023-11-18T03:44:49;10.33;;;7.03;;
8538;SDS011;4307;53.868;11.680;2023-11-18T03:47:16;9.57;;;6.73;;
8538;SDS011;4307;53.868;11.680;2023-11-18T03:49:44;13.20;;;7.03;;
8538;SDS011;4307;53.868;11.680;2023-11-18T03:52:10;11.60;;;7.20;;
8538;SDS011;4307;53.868;11.680;2023-11-18T03:54:37;12.23;;;6.97;;
8538;SDS011;4307;53.868;11.680;2023-11-18T03:57:04;10.17;;;6.87;;
8538;SDS011;4307;53.868;11.680;2023-11-18T03:59:30;11.03;;;6.60;;
8538;SDS011;4307;53.868;11.680;2023-11-18T04:01:57;13.87;;;7.27;;
8538;SDS011;4307;53.868;11.680;2023-11-18T04:04:24;9.73;;;6.30;;
8538;SDS011;4307;53.868;11.680;2023-11-18T04:06:52;12.70;;;5.73;;
8538;SDS011;4307;53.868;11.680;2023-11-18T04:09:18;8.47;;;5.60;;
8538;SDS011;4307;53.868;11.680;2023-11-18T04:11:46;8.57;;;5.37;;
8538;SDS011;4307;53.868;11.680;2023-11-18T04:14:12;10.20;;;6.00;;
8538;SDS011;4307;53.868;11.680;2023-11-18T04:16:39;9.27;;;5.33;;
8538;SDS011;4307;53.868;11.680;2023-11-18T04:19:05;8.07;;;5.40;;
8538;SDS011;4307;53.868;11.680;2023-11-18T04:21:32;8.63;;;5.13;;
8538;SDS011;4307;53.868;11.680;2023-11-18T04:24:00;7.57;;;4.97;;
8538;SDS011;4307;53.868;11.680;2023-11-18T04:26:27;6.10;;;4.63;;
8538;SDS011;4307;53.868;11.680;2023-11-18T04:28:53;7.30;;;5.27;;
8538;SDS011;4307;53.868;11.680;2023-11-18T04:31:20;9.90;;;5.20;;
8538;SDS011;4307;53.868;11.680;2023-11-18T04:33:47;8.57;;;5.63;;
8538;SDS011;4307;53.868;11.680;2023-11-18T04:36:13;9.57;;;5.40;;
8538;SDS011;4307;53.868;11.680;2023-11-18T04:38:41;7.43;;;4.80;;
8538;SDS011;4307;53.868;11.680;2023-11-18T04:41:10;7.30;;;4.70;;
8538;SDS011;4307;53.868;11.680;2023-11-18T04:43:36;8.43;;;4.40;;
8538;SDS011;4307;53.868;11.680;2023-11-18T04:46:05;15.73;;;3.80;;
8538;SDS011;4307;53.868;11.680;2023-11-18T04:48:32;5.63;;;4.13;;
8538;SDS011;4307;53.868;11.680;2023-11-18T04:50:59;5.37;;;4.10;;
8538;SDS011;4307;53.868;11.680;2023-11-18T04:53:26;6.87;;;4.03;;
8538;SDS011;4307;53.868;11.680;2023-11-18T04:55:53;5.53;;;3.70;;
8538;SDS011;4307;53.868;11.680;2023-11-18T04:58:21;5.53;;;4.07;;
8538;SDS011;4307;53.868;11.680;2023-11-18T05:00:48;5.63;;;3.90;;
8538;SDS011;4307;53.868;11.680;2023-11-18T05:03:15;6.23;;;4.33;;
8538;SDS011;4307;53.868;11.680;2023-11-18T05:05:43;4.50;;;3.93;;
8538;SDS011;4307;53.868;11.680;2023-11-18T05:08:17;9.03;;;5.77;;
8538;SDS011;4307;53.868;11.680;2023-11-18T05:10:46;13.33;;;7.17;;
8538;SDS011;4307;53.868;11.680;2023-11-18T05:13:13;9.93;;;6.67;;
8538;SDS011;4307;53.868;11.680;2023-11-18T05:15:42;8.00;;;5.77;;
8538;SDS011;4307;53.868;11.680;2023-11-18T05:18:11;11.00;;;7.00;;
8538;SDS011;4307;53.868;11.680;2023-11-18T05:20:39;13.87;;;8.27;;
8538;SDS011;4307;53.868;11.680;2023-11-18T05:23:06;13.13;;;8.40;;
8538;SDS011;4307;53.868;11.680;2023-11-18T05:25:34;9.77;;;6.83;;
8538;SDS011;4307;53.868;11.680;2023-11-18T05:28:01;12.77;;;7.27;;
8538;SDS011;4307;53.868;11.680;2023-11-18T05:30:29;8.07;;;5.70;;
8538;SDS011;4307;53.868;11.680;2023-11-18T05:32:57;12.27;;;5.63;;
8538;SDS011;4307;53.868;11.680;2023-11-18T05:35:24;6.37;;;4.70;;
8538;SDS011;4307;53.868;11.680;2023-11-18T05:37:53;7.17;;;4.47;;
8538;SDS011;4307;53.868;11.680;2023-11-18T05:40:20;4.87;;;3.73;;
8538;SDS011;4307;53.868;11.680;2023-11-18T05:42:47;7.10;;;4.73;;
8538;SDS011;4307;53.868;11.680;2023-11-18T05:45:16;7.93;;;4.27;;
8538;SDS011;4307;53.868;11.680;2023-11-18T05:47:52;7.17;;;4.60;;
8538;SDS011;4307;53.868;11.680;2023-11-18T05:50:21;5.67;;;4.37;;
8538;SDS011;4307;53.868;11.680;2023-11-18T05:52:49;7.10;;;4.10;;
8538;SDS011;4307;53.868;11.680;2023-11-18T05:55:16;6.47;;;4.50;;
8538;SDS011;4307;53.868;11.680;2023-11-18T05:57:43;7.63;;;4.20;;
8538;SDS011;4307;53.868;11.680;2023-11-18T06:00:10;5.80;;;4.20;;
8538;SDS011;4307;53.868;11.680;2023-11-18T06:02:40;6.60;;;4.33;;
8538;SDS011;4307;53.868;11.680;2023-11-18T06:05:07;6.87;;;4.57;;
8538;SDS011;4307;53.868;11.680;2023-11-18T06:07:36;9.33;;;6.27;;
8538;SDS011;4307;53.868;11.680;2023-11-18T06:10:05;7.10;;;5.37;;
8538;SDS011;4307;53.868;11.680;2023-11-18T06:12:33;9.63;;;5.00;;
8538;SDS011;4307;53.868;11.680;2023-11-18T06:15:01;10.00;;;5.57;;
8538;SDS011;4307;53.868;11.680;2023-11-18T06:17:28;8.53;;;5.27;;
8538;SDS011;4307;53.868;11.680;2023-11-18T06:19:55;10.13;;;6.30;;
8538;SDS011;4307;53.868;11.680;2023-11-18T06:22:22;10.93;;;6.83;;
8538;SDS011;4307;53.868;11.680;2023-11-18T06:24:50;14.80;;;7.53;;
8538;SDS011;4307;53.868;11.680;2023-11-18T06:27:17;14.57;;;7.13;;
8538;SDS011;4307;53.868;11.680;2023-11-18T06:29:48;13.40;;;7.20;;
8538;SDS011;4307;53.868;11.680;2023-11-18T06:32:15;20.47;;;7.60;;
8538;SDS011;4307;53.868;11.680;2023-11-18T06:34:42;28.67;;;8.20;;
8538;SDS011;4307;53.868;11.680;2023-11-18T06:37:08;20.87;;;8.73;;
8538;SDS011;4307;53.868;11.680;2023-11-18T06:39:35;28.07;;;8.03;;
8538;SDS011;4307;53.868;11.680;2023-11-18T06:42:10;31.87;;;8.13;;
8538;SDS011;4307;53.868;11.680;2023-11-18T06:44:39;46.03;;;10.70;;
8538;SDS011;4307;53.868;11.680;2023-11-18T06:47:05;31.97;;;9.07;;
8538;SDS011;4307;53.868;11.680;2023-11-18T06:49:32;24.90;;;9.03;;
8538;SDS011;4307;53.868;11.680;2023-11-18T06:51:59;18.63;;;8.73;;
8538;SDS011;4307;53.868;11.680;2023-11-18T06:54:28;21.63;;;9.00;;
8538;SDS011;4307;53.868;11.680;2023-11-18T06:56:55;23.00;;;9.00;;
8538;SDS011;4307;53.868;11.680;2023-11-18T06:59:23;26.40;;;9.43;;
8538;SDS011;4307;53.868;11.680;2023-11-18T07:01:50;20.20;;;9.27;;
8538;SDS011;4307;53.868;11.680;2023-11-18T07:04:16;15.47;;;8.73;;
8538;SDS011;4307;53.868;11.680;2023-11-18T07:06:44;21.50;;;9.10;;
8538;SDS011;4307;53.868;11.680;2023-11-18T07:09:10;13.40;;;7.67;;
8538;SDS011;4307;53.868;11.680;2023-11-18T07:11:42;11.40;;;6.97;;
8538;SDS011;4307;53.868;11.680;2023-11-18T07:14:09;13.53;;;7.50;;
8538;SDS011;4307;53.868;11.680;2023-11-18T07:16:37;16.27;;;7.60;;
8538;SDS011;4307;53.868;11.680;2023-11-18T07:19:04;13.90;;;7.40;;
8538;SDS011;4307;53.868;11.680;2023-11-18T07:21:31;17.40;;;7.73;;
8538;SDS011;4307;53.868;11.680;2023-11-18T07:23:58;16.30;;;8.47;;
8538;SDS011;4307;53.868;11.680;2023-11-18T07:26:25;15.77;;;7.53;;
8538;SDS011;4307;53.868;11.680;2023-11-18T07:28:52;17.73;;;8.90;;
8538;SDS011;4307;53.868;11.680;2023-11-18T07:31:18;17.10;;;9.83;;
8538;SDS011;4307;53.868;11.680;2023-11-18T07:33:46;17.40;;;9.33;;
8538;SDS011;4307;53.868;11.680;2023-11-18T07:36:14;14.47;;;8.30;;
8538;SDS011;4307;53.868;11.680;2023-11-18T07:38:41;11.87;;;7.13;;
8538;SDS011;4307;53.868;11.680;2023-11-18T07:41:07;15.37;;;8.23;;
8538;SDS011;4307;53.868;11.680;2023-11-18T07:43:33;14.37;;;7.50;;
8538;SDS011;4307;53.868;11.680;2023-11-18T07:46:01;12.70;;;6.70;;
8538;SDS011;4307;53.868;11.680;2023-11-18T07:48:28;12.40;;;7.10;;
8538;SDS011;4307;53.868;11.680;2023-11-18T07:50:57;13.03;;;7.23;;
8538;SDS011;4307;53.868;11.680;2023-11-18T07:53:24;13.30;;;7.60;;
8538;SDS011;4307;53.868;11.680;2023-11-18T07:55:54;14.23;;;7.70;;
8538;SDS011;4307;53.868;11.680;2023-11-18T07:58:21;13.93;;;7.43;;
8538;SDS011;4307;53.868;11.680;2023-11-18T08:00:48;14.80;;;7.50;;
8538;SDS011;4307;53.868;11.680;2023-11-18T08:03:15;16.50;;;8.67;;
8538;SDS011;4307;53.868;11.680;2023-11-18T08:05:42;14.27;;;8.50;;
8538;SDS011;4307;53.868;11.680;2023-11-18T08:08:11;22.77;;;7.43;;
8538;SDS011;4307;53.868;11.680;2023-11-18T08:10:38;15.10;;;7.57;;
8538;SDS011;4307;53.868;11.680;2023-11-18T08:13:06;21.20;;;7.60;;
8538;SDS011;4307;53.868;11.680;2023-11-18T08:15:33;24.73;;;7.23;;
8538;SDS011;4307;53.868;11.680;2023-11-18T08:18:00;16.40;;;7.67;;
8538;SDS011;4307;53.868;11.680;2023-11-18T08:20:27;16.87;;;7.47;;
8538;SDS011;4307;53.868;11.680;2023-11-18T08:22:54;35.33;;;7.97;;
8538;SDS011;4307;53.868;11.680;2023-11-18T08:25:22;61.27;;;8.53;;
8538;SDS011;4307;53.868;11.680;2023-11-18T08:27:49;15.60;;;7.10;;
8538;SDS011;4307;53.868;11.680;2023-11-18T08:30:15;14.43;;;7.90;;
8538;SDS011;4307;53.868;11.680;2023-11-18T08:32:44;20.70;;;8.37;;
8538;SDS011;4307;53.868;11.680;2023-11-18T08:35:12;19.47;;;9.33;;
8538;SDS011;4307;53.868;11.680;2023-11-18T08:37:39;16.70;;;9.10;;
8538;SDS011;4307;53.868;11.680;2023-11-18T08:40:07;18.23;;;9.67;;
8538;SDS011;4307;53.868;11.680;2023-11-18T08:42:41;16.00;;;8.77;;
8538;SDS011;4307;53.868;11.680;2023-11-18T08:45:12;15.50;;;8.67;;
8538;SDS011;4307;53.868;11.680;2023-11-18T08:47:42;20.40;;;9.40;;
8538;SDS011;4307;53.868;11.680;2023-11-18T08:50:09;18.07;;;10.27;;
8538;SDS011;4307;53.868;11.680;2023-11-18T08:52:37;18.87;;;9.73;;
8538;SDS011;4307;53.868;11.680;2023-11-18T08:55:08;17.77;;;9.57;;
8538;SDS011;4307;53.868;11.680;2023-11-18T08:57:43;17.00;;;9.60;;
8538;SDS011;4307;53.868;11.680;2023-11-18T09:00:17;13.50;;;8.67;;
8538;SDS011;4307;53.868;11.680;2023-11-18T09:02:58;14.23;;;8.20;;
8538;SDS011;4307;53.868;11.680;2023-11-18T09:05:26;11.77;;;7.13;;
8538;SDS011;4307;53.868;11.680;2023-11-18T09:07:56;12.37;;;7.50;;
8538;SDS011;4307;53.868;11.680;2023-11-18T09:10:23;9.37;;;6.63;;
8538;SDS011;4307;53.868;11.680;2023-11-18T09:12:51;9.43;;;6.40;;
8538;SDS011;4307;53.868;11.680;2023-11-18T09:15:18;10.70;;;6.30;;
8538;SDS011;4307;53.868;11.680;2023-11-18T09:17:47;9.57;;;6.03;;
8538;SDS011;4307;53.868;11.680;2023-11-18T09:20:14;6.83;;;5.33;;
8538;SDS011;4307;53.868;11.680;2023-11-18T09:22:43;9.57;;;6.03;;
8538;SDS011;4307;53.868;11.680;2023-11-18T09:25:10;7.80;;;5.57;;
8538;SDS011;4307;53.868;11.680;2023-11-18T09:27:37;8.27;;;4.87;;
8538;SDS011;4307;53.868;11.680;2023-11-18T09:30:07;6.50;;;4.90;;
8538;SDS011;4307;53.868;11.680;2023-11-18T09:32:38;5.67;;;4.37;;
8538;SDS011;4307;53.868;11.680;2023-11-18T09:35:07;6.17;;;4.83;;
8538;SDS011;4307;53.868;11.680;2023-11-18T09:37:34;5.53;;;4.57;;
8538;SDS011;4307;53.868;11.680;2023-11-18T09:40:01;7.50;;;4.80;;
8538;SDS011;4307;53.868;11.680;2023-11-18T09:42:36;5.53;;;4.30;;
8538;SDS011;4307;53.868;11.680;2023-11-18T09:45:04;6.63;;;4.87;;
8538;SDS011;4307;53.868;11.680;2023-11-18T09:47:39;7.17;;;5.10;;
8538;SDS011;4307;53.868;11.680;2023-11-18T09:50:12;7.30;;;4.73;;
8538;SDS011;4307;53.868;11.680;2023-11-18T09:52:47;6.53;;;4.87;;
8538;SDS011;4307;53.868;11.680;2023-11-18T09:55:19;7.03;;;5.27;;
8538;SDS011;4307;53.868;11.680;2023-11-18T09:57:53;9.00;;;4.83;;
8538;SDS011;4307;53.868;11.680;2023-11-18T10:00:27;7.13;;;5.27;;
8538;SDS011;4307;53.868;11.680;2023-11-18T10:02:57;7.80;;;5.27;;
8538;SDS011;4307;53.868;11.680;2023-11-18T10:05:25;7.27;;;5.40;;
8538;SDS011;4307;53.868;11.680;2023-11-18T10:07:55;7.70;;;5.63;;
8538;SDS011;4307;53.868;11.680;2023-11-18T10:10:23;14.93;;;5.60;;
8538;SDS011;4307;53.868;11.680;2023-11-18T10:12:55;10.10;;;5.90;;
8538;SDS011;4307;53.868;11.680;2023-11-18T10:15:24;7.23;;;5.20;;
8538;SDS011;4307;53.868;11.680;2023-11-18T10:17:53;6.20;;;4.83;;
8538;SDS011;4307;53.868;11.680;2023-11-18T10:20:43;6.83;;;5.03;;
8538;SDS011;4307;53.868;11.680;2023-11-18T10:23:11;8.50;;;5.20;;
8538;SDS011;4307;53.868;11.680;2023-11-18T10:25:44;6.47;;;5.03;;
8538;SDS011;4307;53.868;11.680;2023-11-18T10:28:20;6.63;;;4.23;;
8538;SDS011;4307;53.868;11.680;2023-11-18T10:30:48;7.20;;;4.87;;
8538;SDS011;4307;53.868;11.680;2023-11-18T10:33:17;5.90;;;4.13;;
8538;SDS011;4307;53.868;11.680;2023-11-18T10:35:50;7.37;;;5.00;;
8538;SDS011;4307;53.868;11.680;2023-11-18T10:38:17;6.37;;;4.47;;
8538;SDS011;4307;53.868;11.680;2023-11-18T10:40:44;10.87;;;6.60;;
8538;SDS011;4307;53.868;11.680;2023-11-18T10:43:12;7.30;;;5.00;;
8538;SDS011;4307;53.868;11.680;2023-11-18T10:45:42;7.73;;;5.30;;
8538;SDS011;4307;53.868;11.680;2023-11-18T10:48:11;9.93;;;5.90;;
8538;SDS011;4307;53.868;11.680;2023-11-18T10:50:42;7.10;;;4.87;;
8538;SDS011;4307;53.868;11.680;2023-11-18T10:53:13;7.20;;;5.17;;
8538;SDS011;4307;53.868;11.680;2023-11-18T10:55:40;7.30;;;5.27;;
8538;SDS011;4307;53.868;11.680;2023-11-18T10:58:07;10.17;;;5.97;;
8538;SDS011;4307;53.868;11.680;2023-11-18T11:00:47;9.47;;;5.27;;
8538;SDS011;4307;53.868;11.680;2023-11-18T11:03:14;8.00;;;5.20;;
8538;SDS011;4307;53.868;11.680;2023-11-18T11:05:44;6.87;;;4.83;;
8538;SDS011;4307;53.868;11.680;2023-11-18T11:08:11;6.70;;;4.93;;
8538;SDS011;4307;53.868;11.680;2023-11-18T11:10:41;7.80;;;4.70;;
8538;SDS011;4307;53.868;11.680;2023-11-18T11:13:08;7.57;;;5.10;;
8538;SDS011;4307;53.868;11.680;2023-11-18T11:15:40;7.80;;;4.83;;
8538;SDS011;4307;53.868;11.680;2023-11-18T11:18:10;6.90;;;4.83;;
8538;SDS011;4307;53.868;11.680;2023-11-18T11:20:42;7.40;;;5.30;;
8538;SDS011;4307;53.868;11.680;2023-11-18T11:23:21;7.13;;;4.43;;
8538;SDS011;4307;53.868;11.680;2023-11-18T11:25:55;5.97;;;4.47;;
8538;SDS011;4307;53.868;11.680;2023-11-18T11:28:32;6.53;;;4.70;;
8538;SDS011;4307;53.868;11.680;2023-11-18T11:31:08;7.13;;;4.47;;
8538;SDS011;4307;53.868;11.680;2023-11-18T11:33:42;5.87;;;4.60;;
8538;SDS011;4307;53.868;11.680;2023-11-18T11:36:13;5.53;;;4.63;;
8538;SDS011;4307;53.868;11.680;2023-11-18T11:38:49;5.40;;;4.20;;
8538;SDS011;4307;53.868;11.680;2023-11-18T11:41:21;5.77;;;4.43;;
8538;SDS011;4307;53.868;11.680;2023-11-18T11:43:51;7.80;;;4.97;;
8538;SDS011;4307;53.868;11.680;2023-11-18T11:46:20;6.97;;;4.77;;
8538;SDS011;4307;53.868;11.680;2023-11-18T11:48:48;6.40;;;4.67;;
8538;SDS011;4307;53.868;11.680;2023-11-18T11:51:19;7.80;;;4.90;;
8538;SDS011;4307;53.868;11.680;2023-11-18T11:53:55;8.60;;;4.40;;
8538;SDS011;4307;53.868;11.680;2023-11-18T11:56:39;6.50;;;4.30;;
8538;SDS011;4307;53.868;11.680;2023-11-18T11:59:08;5.30;;;3.90;;
8538;SDS011;4307;53.868;11.680;2023-11-18T12:01:36;3.83;;;3.43;;
8538;SDS011;4307;53.868;11.680;2023-11-18T12:04:04;4.10;;;3.27;;
8538;SDS011;4307;53.868;11.680;2023-11-18T12:06:35;5.40;;;3.27;;
8538;SDS011;4307;53.868;11.680;2023-11-18T12:09:09;5.27;;;2.90;;
8538;SDS011;4307;53.868;11.680;2023-11-18T12:11:44;4.80;;;3.27;;
8538;SDS011;4307;53.868;11.680;2023-11-18T12:14:14;4.40;;;3.40;;
8538;SDS011;4307;53.868;11.680;2023-11-18T12:17:03;5.43;;;3.73;;
8538;SDS011;4307;53.868;11.680;2023-11-18T12:19:35;4.13;;;3.50;;
8538;SDS011;4307;53.868;11.680;2023-11-18T12:22:09;4.10;;;3.40;;
8538;SDS011;4307;53.868;11.680;2023-11-18T12:24:44;4.77;;;3.80;;
8538;SDS011;4307;53.868;11.680;2023-11-18T12:27:43;6.13;;;3.80;;
8538;SDS011;4307;53.868;11.680;2023-11-18T12:33:08;4.33;;;3.90;;
8538;SDS011;4307;53.868;11.680;2023-11-18T12:35:39;5.57;;;3.97;;
8538;SDS011;4307;53.868;11.680;2023-11-18T12:38:26;5.60;;;4.37;;
8538;SDS011;4307;53.868;11.680;2023-11-18T12:41:16;6.90;;;4.53;;
8538;SDS011;4307;53.868;11.680;2023-11-18T12:43:56;6.23;;;4.47;;
8538;SDS011;4307;53.868;11.680;2023-11-18T12:46:49;6.80;;;4.87;;
8538;SDS011;4307;53.868;11.680;2023-11-18T12:49:18;5.53;;;4.33;;
8538;SDS011;4307;53.868;11.680;2023-11-18T12:51:48;5.50;;;4.33;;
8538;SDS011;4307;53.868;11.680;2023-11-18T12:54:16;5.23;;;4.13;;
8538;SDS011;4307;53.868;11.680;2023-11-18T12:56:46;6.93;;;4.80;;
8538;SDS011;4307;53.868;11.680;2023-11-18T12:59:14;6.20;;;4.70;;
8538;SDS011;4307;53.868;11.680;2023-11-18T13:01:43;7.37;;;4.33;;
8538;SDS011;4307;53.868;11.680;2023-11-18T13:04:16;6.00;;;4.67;;
8538;SDS011;4307;53.868;11.680;2023-11-18T13:06:44;6.17;;;4.50;;
8538;SDS011;4307;53.868;11.680;2023-11-18T13:09:11;7.07;;;4.47;;
8538;SDS011;4307;53.868;11.680;2023-11-18T13:11:51;4.70;;;3.77;;
8538;SDS011;4307;53.868;11.680;2023-11-18T13:14:22;4.87;;;4.33;;
8538;SDS011;4307;53.868;11.680;2023-11-18T13:16:51;5.70;;;4.30;;
8538;SDS011;4307;53.868;11.680;2023-11-18T13:19:25;5.53;;;4.00;;
8538;SDS011;4307;53.868;11.680;2023-11-18T13:21:55;5.33;;;3.73;;
8538;SDS011;4307;53.868;11.680;2023-11-18T13:24:23;7.07;;;4.67;;
8538;SDS011;4307;53.868;11.680;2023-11-18T13:26:53;5.17;;;4.33;;
8538;SDS011;4307;53.868;11.680;2023-11-18T13:29:21;6.60;;;4.33;;
8538;SDS011;4307;53.868;11.680;2023-11-18T13:31:48;6.83;;;4.70;;
8538;SDS011;4307;53.868;11.680;2023-11-18T13:34:16;6.80;;;4.70;;
8538;SDS011;4307;53.868;11.680;2023-11-18T13:36:43;6.90;;;4.60;;
8538;SDS011;4307;53.868;11.680;2023-11-18T13:39:14;6.53;;;4.53;;
8538;SDS011;4307;53.868;11.680;2023-11-18T13:41:42;6.03;;;3.97;;
8538;SDS011;4307;53.868;11.680;2023-11-18T13:44:11;4.93;;;3.60;;
8538;SDS011;4307;53.868;11.680;2023-11-18T13:46:38;4.83;;;4.10;;
8538;SDS011;4307;53.868;11.680;2023-11-18T13:49:06;5.37;;;3.90;;
8538;SDS011;4307;53.868;11.680;2023-11-18T13:51:33;8.30;;;4.63;;
8538;SDS011;4307;53.868;11.680;2023-11-18T13:54:01;7.90;;;5.03;;
8538;SDS011;4307;53.868;11.680;2023-11-18T13:56:28;7.80;;;4.80;;
8538;SDS011;4307;53.868;11.680;2023-11-18T13:58:55;6.60;;;4.47;;
8538;SDS011;4307;53.868;11.680;2023-11-18T14:01:24;7.07;;;4.87;;
8538;SDS011;4307;53.868;11.680;2023-11-18T14:03:53;4.90;;;3.93;;
8538;SDS011;4307;53.868;11.680;2023-11-18T14:06:21;6.80;;;4.67;;
8538;SDS011;4307;53.868;11.680;2023-11-18T14:08:48;7.60;;;5.23;;
8538;SDS011;4307;53.868;11.680;2023-11-18T14:11:16;7.40;;;5.07;;
8538;SDS011;4307;53.868;11.680;2023-11-18T14:13:43;6.73;;;4.73;;
8538;SDS011;4307;53.868;11.680;2023-11-18T14:16:10;7.60;;;4.73;;
8538;SDS011;4307;53.868;11.680;2023-11-18T14:18:38;7.03;;;5.17;;
8538;SDS011;4307;53.868;11.680;2023-11-18T14:21:06;8.17;;;4.83;;
8538;SDS011;4307;53.868;11.680;2023-11-18T14:23:34;7.97;;;5.23;;
8538;SDS011;4307;53.868;11.680;2023-11-18T14:26:02;6.67;;;4.93;;
8538;SDS011;4307;53.868;11.680;2023-11-18T14:28:29;7.37;;;5.07;;
8538;SDS011;4307;53.868;11.680;2023-11-18T14:30:56;5.73;;;4.43;;
8538;SDS011;4307;53.868;11.680;2023-11-18T14:33:23;6.73;;;4.77;;
8538;SDS011;4307;53.868;11.680;2023-11-18T14:35:51;8.77;;;4.83;;
8538;SDS011;4307;53.868;11.680;2023-11-18T14:38:18;5.60;;;4.13;;
8538;SDS011;4307;53.868;11.680;2023-11-18T14:40:46;7.60;;;4.77;;
8538;SDS011;4307;53.868;11.680;2023-11-18T14:43:14;7.43;;;4.63;;
8538;SDS011;4307;53.868;11.680;2023-11-18T14:45:41;6.97;;;4.97;;
8538;SDS011;4307;53.868;11.680;2023-11-18T14:48:08;9.37;;;5.40;;
8538;SDS011;4307;53.868;11.680;2023-11-18T14:50:35;7.53;;;5.60;;
8538;SDS011;4307;53.868;11.680;2023-11-18T14:53:04;9.40;;;5.50;;
8538;SDS011;4307;53.868;11.680;2023-11-18T14:55:31;7.87;;;5.73;;
8538;SDS011;4307;53.868;11.680;2023-11-18T14:57:58;7.77;;;5.80;;
8538;SDS011;4307;53.868;11.680;2023-11-18T15:00:25;13.70;;;7.40;;
8538;SDS011;4307;53.868;11.680;2023-11-18T15:02:53;9.40;;;6.20;;
8538;SDS011;4307;53.868;11.680;2023-11-18T15:05:21;7.93;;;5.40;;
8538;SDS011;4307;53.868;11.680;2023-11-18T15:07:49;9.43;;;6.53;;